AXM1502 WMKP-VVTS
Flight info
| Callsign | AXM1502 |
|---|---|
| Flight time | 1h 38m |
| Altitude | 33000 |
| Route | BETNU1B BETNU W546 VKB M765 IGARI M765 BITOD L637 ANBOV ANBOV5B |
| Aircraft | A320/M-SDE3FGHIRWY/LB1 |
Departure
| Time | 2026-04-23 15:05 |
|---|---|
| Airport | Penang International Airport (WMKP) |
Arrival
| Time | 2026-04-23 16:43 |
|---|---|
| Airport | Tan Son Nhat International Airport (VVTS) |
| Time | Latitude | Longitude | Altitude | Speed | Heading |
|---|---|---|---|---|---|
| 2026-04-23 14:30 | 5.29335 | 100.26744 | 23 ft | 0 kts | 311° |
| 2026-04-23 14:54 | 5.29324 | 100.26757 | 23 ft | 4 kts | 309° |
| 2026-04-23 14:54 | 5.29308 | 100.26778 | 24 ft | 4 kts | 301° |
| 2026-04-23 14:54 | 5.29296 | 100.26802 | 25 ft | 4 kts | 282° |
| 2026-04-23 14:55 | 5.29297 | 100.26825 | 26 ft | 3 kts | 225° |
| 2026-04-23 14:55 | 5.29302 | 100.26830 | 26 ft | 0 kts | 221° |
| 2026-04-23 14:58 | 5.29283 | 100.26813 | 26 ft | 11 kts | 221° |
| 2026-04-23 14:58 | 5.29229 | 100.26765 | 25 ft | 10 kts | 221° |
| 2026-04-23 14:59 | 5.29182 | 100.26725 | 24 ft | 9 kts | 221° |
| 2026-04-23 14:59 | 5.29092 | 100.26644 | 23 ft | 22 kts | 221° |
| 2026-04-23 14:59 | 5.28977 | 100.26540 | 23 ft | 23 kts | 221° |
| 2026-04-23 14:59 | 5.28893 | 100.26471 | 23 ft | 0 kts | 211° |
| 2026-04-23 15:00 | 5.28882 | 100.26467 | 23 ft | 7 kts | 193° |
| 2026-04-23 15:00 | 5.28843 | 100.26493 | 23 ft | 6 kts | 136° |
| 2026-04-23 15:00 | 5.28788 | 100.26555 | 23 ft | 10 kts | 131° |
| 2026-04-23 15:00 | 5.28733 | 100.26579 | 25 ft | 8 kts | 172° |
| 2026-04-23 15:01 | 5.28687 | 100.26592 | 23 ft | 6 kts | 146° |
| 2026-04-23 15:01 | 5.28677 | 100.26602 | 23 ft | 0 kts | 134° |
| 2026-04-23 15:03 | 5.28667 | 100.26611 | 26 ft | 10 kts | 134° |
| 2026-04-23 15:03 | 5.28621 | 100.26665 | 23 ft | 3 kts | 102° |
| 2026-04-23 15:03 | 5.28627 | 100.26689 | 23 ft | 3 kts | 74° |
| 2026-04-23 15:03 | 5.28673 | 100.26734 | 25 ft | 14 kts | 36° |
| 2026-04-23 15:04 | 5.28739 | 100.26799 | 24 ft | 13 kts | 42° |
| 2026-04-23 15:04 | 5.28831 | 100.26884 | 25 ft | 33 kts | 41° |
| 2026-04-23 15:04 | 5.29221 | 100.27237 | 24 ft | 117 kts | 42° |
| 2026-04-23 15:04 | 5.29998 | 100.27937 | 95 ft | 175 kts | 43° |
| 2026-04-23 15:05 | 5.30892 | 100.28754 | 664 ft | 174 kts | 43° |
| 2026-04-23 15:05 | 5.31825 | 100.29594 | 931 ft | 186 kts | 42° |
| 2026-04-23 15:05 | 5.32821 | 100.30470 | 1366 ft | 193 kts | 41° |
| 2026-04-23 15:05 | 5.33857 | 100.31380 | 1810 ft | 209 kts | 42° |
| 2026-04-23 15:06 | 5.34990 | 100.32383 | 2243 ft | 223 kts | 42° |
| 2026-04-23 15:06 | 5.36181 | 100.33439 | 2834 ft | 233 kts | 42° |
| 2026-04-23 15:06 | 5.37371 | 100.34584 | 3402 ft | 243 kts | 54° |
| 2026-04-23 15:06 | 5.38000 | 100.36171 | 4004 ft | 253 kts | 80° |
| 2026-04-23 15:07 | 5.38172 | 100.37974 | 4570 ft | 266 kts | 87° |
| 2026-04-23 15:07 | 5.38193 | 100.39860 | 5049 ft | 272 kts | 89° |
| 2026-04-23 15:07 | 5.38195 | 100.41762 | 5530 ft | 274 kts | 89° |
| 2026-04-23 15:07 | 5.38228 | 100.43670 | 6018 ft | 275 kts | 88° |
| 2026-04-23 15:08 | 5.38302 | 100.45595 | 6492 ft | 276 kts | 87° |
| 2026-04-23 15:08 | 5.38409 | 100.47523 | 6958 ft | 278 kts | 86° |
| 2026-04-23 15:08 | 5.38538 | 100.49465 | 7429 ft | 281 kts | 86° |
| 2026-04-23 15:09 | 5.38827 | 100.53420 | 8397 ft | 287 kts | 86° |
| 2026-04-23 15:09 | 5.38978 | 100.55429 | 8895 ft | 290 kts | 86° |
| 2026-04-23 15:09 | 5.39132 | 100.57451 | 9403 ft | 293 kts | 87° |
| 2026-04-23 15:09 | 5.39288 | 100.59499 | 9891 ft | 297 kts | 87° |
| 2026-04-23 15:10 | 5.39393 | 100.60887 | 10190 ft | 305 kts | 87° |
| 2026-04-23 15:10 | 5.39612 | 100.63794 | 10821 ft | 320 kts | 86° |
| 2026-04-23 15:10 | 5.39780 | 100.66027 | 11293 ft | 329 kts | 86° |
| 2026-04-23 15:10 | 5.39954 | 100.68352 | 11778 ft | 339 kts | 86° |
| 2026-04-23 15:11 | 5.40133 | 100.70740 | 12269 ft | 347 kts | 86° |
| 2026-04-23 15:11 | 5.40318 | 100.73182 | 12780 ft | 355 kts | 86° |
| 2026-04-23 15:11 | 5.40506 | 100.75670 | 13286 ft | 361 kts | 86° |
| 2026-04-23 15:11 | 5.40698 | 100.78208 | 13784 ft | 367 kts | 86° |
| 2026-04-23 15:12 | 5.40889 | 100.80781 | 14222 ft | 373 kts | 86° |
| 2026-04-23 15:12 | 5.41084 | 100.83384 | 14690 ft | 376 kts | 86° |
| 2026-04-23 15:12 | 5.41279 | 100.86005 | 15152 ft | 378 kts | 86° |
| 2026-04-23 15:12 | 5.41476 | 100.88647 | 15634 ft | 381 kts | 86° |
| 2026-04-23 15:13 | 5.41674 | 100.91313 | 16110 ft | 383 kts | 86° |
| 2026-04-23 15:13 | 5.41874 | 100.93990 | 16599 ft | 386 kts | 86° |
| 2026-04-23 15:13 | 5.42073 | 100.96683 | 17093 ft | 389 kts | 86° |
| 2026-04-23 15:13 | 5.42275 | 100.99405 | 17597 ft | 391 kts | 86° |
| 2026-04-23 15:14 | 5.42477 | 101.02125 | 18113 ft | 394 kts | 86° |
| 2026-04-23 15:14 | 5.42683 | 101.04875 | 18560 ft | 396 kts | 85° |
| 2026-04-23 15:14 | 5.43114 | 101.07615 | 19013 ft | 399 kts | 80° |
| 2026-04-23 15:14 | 5.43629 | 101.10361 | 19457 ft | 401 kts | 80° |
| 2026-04-23 15:15 | 5.44143 | 101.13111 | 19915 ft | 403 kts | 80° |
| 2026-04-23 15:15 | 5.44660 | 101.15888 | 20383 ft | 404 kts | 80° |
| 2026-04-23 15:15 | 5.45175 | 101.18661 | 20854 ft | 406 kts | 80° |
| 2026-04-23 15:15 | 5.45688 | 101.21447 | 21332 ft | 407 kts | 80° |
| 2026-04-23 15:16 | 5.46195 | 101.24210 | 21813 ft | 408 kts | 80° |
| 2026-04-23 15:16 | 5.46711 | 101.27013 | 22319 ft | 409 kts | 80° |
| 2026-04-23 15:16 | 5.47233 | 101.29816 | 22820 ft | 409 kts | 80° |
| 2026-04-23 15:16 | 5.47757 | 101.32631 | 23345 ft | 409 kts | 80° |
| 2026-04-23 15:17 | 5.48277 | 101.35436 | 23792 ft | 409 kts | 80° |
| 2026-04-23 15:17 | 5.48793 | 101.38242 | 24226 ft | 409 kts | 80° |
| 2026-04-23 15:17 | 5.49311 | 101.41044 | 24664 ft | 409 kts | 80° |
| 2026-04-23 15:17 | 5.49832 | 101.43849 | 25108 ft | 408 kts | 81° |
| 2026-04-23 15:18 | 5.50351 | 101.46649 | 25574 ft | 407 kts | 81° |
| 2026-04-23 15:18 | 5.50867 | 101.49438 | 26042 ft | 406 kts | 81° |
| 2026-04-23 15:18 | 5.51381 | 101.52224 | 26361 ft | 409 kts | 81° |
| 2026-04-23 15:18 | 5.51901 | 101.55050 | 26653 ft | 413 kts | 81° |
| 2026-04-23 15:19 | 5.52423 | 101.57890 | 26939 ft | 416 kts | 81° |
| 2026-04-23 15:19 | 5.52953 | 101.60764 | 27244 ft | 420 kts | 81° |
| 2026-04-23 15:19 | 5.53485 | 101.63648 | 27533 ft | 422 kts | 81° |
| 2026-04-23 15:19 | 5.54023 | 101.66556 | 27827 ft | 425 kts | 81° |
| 2026-04-23 15:20 | 5.54379 | 101.68496 | 27996 ft | 427 kts | 81° |
| 2026-04-23 15:20 | 5.55104 | 101.72441 | 28299 ft | 432 kts | 81° |
| 2026-04-23 15:20 | 5.55653 | 101.75423 | 28525 ft | 436 kts | 81° |
| 2026-04-23 15:20 | 5.56209 | 101.78433 | 28756 ft | 440 kts | 81° |
| 2026-04-23 15:21 | 5.56768 | 101.81449 | 28990 ft | 443 kts | 81° |
| 2026-04-23 15:21 | 5.57333 | 101.84511 | 29223 ft | 446 kts | 81° |
| 2026-04-23 15:21 | 5.57946 | 101.87563 | 29462 ft | 449 kts | 76° |
| 2026-04-23 15:21 | 5.58985 | 101.90535 | 29704 ft | 453 kts | 66° |
| 2026-04-23 15:22 | 5.60513 | 101.93310 | 29929 ft | 457 kts | 57° |
| 2026-04-23 15:22 | 5.62516 | 101.95819 | 30142 ft | 461 kts | 47° |
| 2026-04-23 15:22 | 5.64915 | 101.97956 | 30343 ft | 464 kts | 37° |
| 2026-04-23 15:22 | 5.67605 | 101.99760 | 30536 ft | 466 kts | 33° |
| 2026-04-23 15:23 | 5.70334 | 102.01528 | 30738 ft | 468 kts | 33° |
| 2026-04-23 15:23 | 5.73084 | 102.03306 | 30859 ft | 472 kts | 33° |
| 2026-04-23 15:23 | 5.75856 | 102.05100 | 30890 ft | 477 kts | 33° |
| 2026-04-23 15:24 | 5.81414 | 102.08712 | 30878 ft | 480 kts | 33° |
| 2026-04-23 15:24 | 5.87061 | 102.12380 | 30872 ft | 480 kts | 33° |
| 2026-04-23 15:25 | 5.92630 | 102.15995 | 30886 ft | 480 kts | 33° |
| 2026-04-23 15:25 | 5.98239 | 102.19643 | 30887 ft | 480 kts | 33° |
| 2026-04-23 15:26 | 6.03843 | 102.23284 | 30886 ft | 480 kts | 33° |
| 2026-04-23 15:26 | 6.09456 | 102.26931 | 30884 ft | 480 kts | 33° |
| 2026-04-23 15:27 | 6.14914 | 102.30767 | 30886 ft | 479 kts | 43° |
| 2026-04-23 15:27 | 6.19159 | 102.35873 | 30880 ft | 476 kts | 59° |
| 2026-04-23 15:28 | 6.22683 | 102.41497 | 30874 ft | 476 kts | 59° |
| 2026-04-23 15:28 | 6.26235 | 102.47120 | 30868 ft | 477 kts | 59° |
| 2026-04-23 15:29 | 6.29800 | 102.52746 | 30867 ft | 477 kts | 59° |
| 2026-04-23 15:29 | 6.33350 | 102.58377 | 30863 ft | 477 kts | 59° |
| 2026-04-23 15:30 | 6.36903 | 102.64029 | 30867 ft | 477 kts | 59° |
| 2026-04-23 15:30 | 6.40440 | 102.69663 | 30869 ft | 477 kts | 59° |
| 2026-04-23 15:31 | 6.43988 | 102.75302 | 30868 ft | 477 kts | 59° |
| 2026-04-23 15:31 | 6.47542 | 102.80950 | 30871 ft | 477 kts | 59° |
| 2026-04-23 15:32 | 6.51029 | 102.86622 | 30871 ft | 477 kts | 60° |
| 2026-04-23 15:32 | 6.54427 | 102.92375 | 30873 ft | 477 kts | 60° |
| 2026-04-23 15:33 | 6.57785 | 102.98101 | 30870 ft | 477 kts | 60° |
| 2026-04-23 15:33 | 6.61193 | 103.03854 | 30871 ft | 477 kts | 60° |
| 2026-04-23 15:34 | 6.64612 | 103.09584 | 30872 ft | 477 kts | 60° |
| 2026-04-23 15:34 | 6.68023 | 103.15300 | 30866 ft | 477 kts | 60° |
| 2026-04-23 15:35 | 6.71434 | 103.21041 | 30868 ft | 477 kts | 60° |
| 2026-04-23 15:35 | 6.74838 | 103.26772 | 30871 ft | 477 kts | 60° |
| 2026-04-23 15:36 | 6.78244 | 103.32509 | 30874 ft | 478 kts | 60° |
| 2026-04-23 15:36 | 6.81655 | 103.38250 | 30868 ft | 478 kts | 60° |
| 2026-04-23 15:37 | 6.85051 | 103.43981 | 30867 ft | 478 kts | 60° |
| 2026-04-23 15:37 | 6.87880 | 103.48752 | 30873 ft | 478 kts | 60° |
| 2026-04-23 15:38 | 6.91868 | 103.55461 | 30867 ft | 478 kts | 60° |
| 2026-04-23 15:38 | 6.94756 | 103.60210 | 30871 ft | 478 kts | 54° |
| 2026-04-23 15:38 | 6.97861 | 103.63337 | 30870 ft | 479 kts | 39° |
| 2026-04-23 15:39 | 7.00481 | 103.65422 | 30871 ft | 479 kts | 38° |
| 2026-04-23 15:39 | 7.05735 | 103.69550 | 30862 ft | 480 kts | 38° |
| 2026-04-23 15:40 | 7.11008 | 103.73691 | 30872 ft | 480 kts | 38° |
| 2026-04-23 15:40 | 7.16283 | 103.77834 | 30867 ft | 481 kts | 38° |
| 2026-04-23 15:41 | 7.21550 | 103.81976 | 30873 ft | 481 kts | 38° |
| 2026-04-23 15:41 | 7.26830 | 103.86136 | 30857 ft | 483 kts | 38° |
| 2026-04-23 15:42 | 7.32146 | 103.90321 | 30855 ft | 485 kts | 38° |
| 2026-04-23 15:42 | 7.37465 | 103.94509 | 30862 ft | 486 kts | 38° |
| 2026-04-23 15:43 | 7.41905 | 103.98003 | 30858 ft | 487 kts | 38° |
| 2026-04-23 15:43 | 7.47244 | 104.02203 | 30862 ft | 488 kts | 38° |
| 2026-04-23 15:44 | 7.52604 | 104.06421 | 30866 ft | 488 kts | 38° |
| 2026-04-23 15:44 | 7.57961 | 104.10637 | 30864 ft | 489 kts | 38° |
| 2026-04-23 15:45 | 7.63318 | 104.14853 | 30873 ft | 489 kts | 38° |
| 2026-04-23 15:45 | 7.68683 | 104.19076 | 30872 ft | 489 kts | 38° |
| 2026-04-23 15:46 | 7.74040 | 104.23293 | 30870 ft | 489 kts | 38° |
| 2026-04-23 15:46 | 7.79382 | 104.27467 | 30881 ft | 488 kts | 34° |
| 2026-04-23 15:47 | 7.84972 | 104.31376 | 30910 ft | 486 kts | 38° |
| 2026-04-23 15:47 | 7.90235 | 104.35634 | 30909 ft | 483 kts | 40° |
| 2026-04-23 15:48 | 7.95414 | 104.39951 | 30906 ft | 482 kts | 39° |
| 2026-04-23 15:48 | 8.00660 | 104.44168 | 30900 ft | 481 kts | 38° |
| 2026-04-23 15:49 | 8.05912 | 104.48288 | 30888 ft | 481 kts | 38° |
| 2026-04-23 15:49 | 8.11210 | 104.52467 | 30886 ft | 481 kts | 39° |
| 2026-04-23 15:50 | 8.16431 | 104.56612 | 30884 ft | 480 kts | 39° |
| 2026-04-23 15:50 | 8.21680 | 104.60783 | 30886 ft | 480 kts | 39° |
| 2026-04-23 15:51 | 8.26925 | 104.64960 | 30885 ft | 480 kts | 39° |
| 2026-04-23 15:51 | 8.32166 | 104.69132 | 30885 ft | 480 kts | 39° |
| 2026-04-23 15:52 | 8.37417 | 104.73290 | 30875 ft | 480 kts | 38° |
| 2026-04-23 15:52 | 8.42665 | 104.77466 | 30879 ft | 480 kts | 39° |
| 2026-04-23 15:53 | 8.47906 | 104.81643 | 30882 ft | 480 kts | 39° |
| 2026-04-23 15:53 | 8.53148 | 104.85816 | 30876 ft | 480 kts | 39° |
| 2026-04-23 15:54 | 8.58383 | 104.89991 | 30877 ft | 479 kts | 39° |
| 2026-04-23 15:54 | 8.63621 | 104.94156 | 30877 ft | 479 kts | 38° |
| 2026-04-23 15:55 | 8.68861 | 104.98323 | 30876 ft | 479 kts | 39° |
| 2026-04-23 15:55 | 8.74089 | 105.02507 | 30875 ft | 479 kts | 39° |
| 2026-04-23 15:56 | 8.79324 | 105.06686 | 30876 ft | 479 kts | 39° |
| 2026-04-23 15:56 | 8.84556 | 105.10849 | 30877 ft | 478 kts | 39° |
| 2026-04-23 15:57 | 8.89778 | 105.15016 | 30889 ft | 478 kts | 39° |
| 2026-04-23 15:57 | 8.94988 | 105.19185 | 30878 ft | 478 kts | 39° |
| 2026-04-23 15:58 | 9.00203 | 105.23351 | 30878 ft | 477 kts | 39° |
| 2026-04-23 15:58 | 9.05415 | 105.27509 | 30880 ft | 477 kts | 39° |
| 2026-04-23 15:59 | 9.10624 | 105.31669 | 30878 ft | 477 kts | 39° |
| 2026-04-23 15:59 | 9.15833 | 105.35837 | 30882 ft | 477 kts | 39° |
| 2026-04-23 16:00 | 9.21035 | 105.39998 | 30665 ft | 477 kts | 39° |
| 2026-04-23 16:00 | 9.23646 | 105.42083 | 30393 ft | 477 kts | 39° |
| 2026-04-23 16:00 | 9.26248 | 105.44164 | 30122 ft | 478 kts | 39° |
| 2026-04-23 16:00 | 9.28825 | 105.46228 | 29838 ft | 479 kts | 39° |
| 2026-04-23 16:01 | 9.31481 | 105.48355 | 29514 ft | 480 kts | 39° |
| 2026-04-23 16:01 | 9.34101 | 105.50455 | 29192 ft | 481 kts | 39° |
| 2026-04-23 16:01 | 9.36726 | 105.52557 | 28888 ft | 481 kts | 39° |
| 2026-04-23 16:01 | 9.39351 | 105.54660 | 28590 ft | 482 kts | 39° |
| 2026-04-23 16:02 | 9.41980 | 105.56765 | 28276 ft | 482 kts | 39° |
| 2026-04-23 16:02 | 9.44622 | 105.58884 | 27977 ft | 483 kts | 39° |
| 2026-04-23 16:02 | 9.47251 | 105.60995 | 27678 ft | 484 kts | 39° |
| 2026-04-23 16:02 | 9.49857 | 105.63087 | 27383 ft | 484 kts | 39° |
| 2026-04-23 16:03 | 9.52497 | 105.65204 | 27080 ft | 484 kts | 39° |
| 2026-04-23 16:03 | 9.55141 | 105.67323 | 26808 ft | 485 kts | 39° |
| 2026-04-23 16:03 | 9.57792 | 105.69450 | 26526 ft | 485 kts | 39° |
| 2026-04-23 16:03 | 9.60430 | 105.71565 | 26231 ft | 483 kts | 39° |
| 2026-04-23 16:04 | 9.63061 | 105.73673 | 25951 ft | 482 kts | 39° |
| 2026-04-23 16:04 | 9.65687 | 105.75776 | 25673 ft | 480 kts | 39° |
| 2026-04-23 16:04 | 9.68298 | 105.77867 | 25396 ft | 478 kts | 39° |
| 2026-04-23 16:04 | 9.70902 | 105.79954 | 25117 ft | 476 kts | 39° |
| 2026-04-23 16:05 | 9.72616 | 105.81330 | 24950 ft | 475 kts | 39° |
| 2026-04-23 16:05 | 9.76068 | 105.84104 | 24598 ft | 472 kts | 39° |
| 2026-04-23 16:05 | 9.78638 | 105.86170 | 24328 ft | 470 kts | 39° |
| 2026-04-23 16:05 | 9.81198 | 105.88227 | 24067 ft | 469 kts | 39° |
| 2026-04-23 16:06 | 9.83744 | 105.90277 | 23807 ft | 468 kts | 39° |
| 2026-04-23 16:06 | 9.86292 | 105.92331 | 23553 ft | 467 kts | 39° |
| 2026-04-23 16:06 | 9.88831 | 105.94376 | 23247 ft | 465 kts | 39° |
| 2026-04-23 16:06 | 9.91359 | 105.96411 | 22948 ft | 459 kts | 39° |
| 2026-04-23 16:07 | 9.93823 | 105.98394 | 22647 ft | 446 kts | 39° |
| 2026-04-23 16:07 | 9.96219 | 106.00324 | 22336 ft | 434 kts | 39° |
| 2026-04-23 16:07 | 9.98556 | 106.02206 | 22034 ft | 424 kts | 38° |
| 2026-04-23 16:07 | 10.00842 | 106.04045 | 21730 ft | 415 kts | 38° |
| 2026-04-23 16:08 | 10.03083 | 106.05844 | 21435 ft | 406 kts | 38° |
| 2026-04-23 16:08 | 10.05277 | 106.07607 | 21141 ft | 398 kts | 38° |
| 2026-04-23 16:08 | 10.07430 | 106.09339 | 20857 ft | 390 kts | 38° |
| 2026-04-23 16:08 | 10.09539 | 106.11038 | 20572 ft | 383 kts | 38° |
| 2026-04-23 16:09 | 10.11599 | 106.12702 | 20289 ft | 376 kts | 39° |
| 2026-04-23 16:09 | 10.13627 | 106.14340 | 20010 ft | 369 kts | 38° |
| 2026-04-23 16:09 | 10.15595 | 106.15928 | 19735 ft | 363 kts | 38° |
| 2026-04-23 16:09 | 10.17553 | 106.17508 | 19468 ft | 357 kts | 38° |
| 2026-04-23 16:10 | 10.19484 | 106.19066 | 19189 ft | 352 kts | 38° |
| 2026-04-23 16:10 | 10.21395 | 106.20604 | 18927 ft | 349 kts | 38° |
| 2026-04-23 16:10 | 10.23288 | 106.22128 | 18659 ft | 347 kts | 38° |
| 2026-04-23 16:10 | 10.25178 | 106.23653 | 18395 ft | 345 kts | 38° |
| 2026-04-23 16:11 | 10.26999 | 106.25219 | 18123 ft | 343 kts | 45° |
| 2026-04-23 16:11 | 10.28648 | 106.26964 | 17815 ft | 341 kts | 46° |
| 2026-04-23 16:11 | 10.30279 | 106.28703 | 17513 ft | 339 kts | 46° |
| 2026-04-23 16:11 | 10.31901 | 106.30426 | 17211 ft | 337 kts | 46° |
| 2026-04-23 16:12 | 10.33516 | 106.32141 | 16919 ft | 335 kts | 46° |
| 2026-04-23 16:12 | 10.35122 | 106.33849 | 16625 ft | 333 kts | 46° |
| 2026-04-23 16:12 | 10.36718 | 106.35544 | 16336 ft | 331 kts | 46° |
| 2026-04-23 16:12 | 10.38307 | 106.37233 | 16046 ft | 329 kts | 46° |
| 2026-04-23 16:13 | 10.39884 | 106.38912 | 15760 ft | 327 kts | 46° |
| 2026-04-23 16:13 | 10.43005 | 106.42235 | 15196 ft | 323 kts | 46° |
| 2026-04-23 16:13 | 10.44549 | 106.43878 | 14922 ft | 321 kts | 46° |
| 2026-04-23 16:14 | 10.46086 | 106.45515 | 14646 ft | 318 kts | 46° |
| 2026-04-23 16:14 | 10.47611 | 106.47140 | 14375 ft | 316 kts | 46° |
| 2026-04-23 16:14 | 10.49125 | 106.48755 | 14103 ft | 315 kts | 46° |
| 2026-04-23 16:14 | 10.50629 | 106.50357 | 13834 ft | 312 kts | 46° |
| 2026-04-23 16:15 | 10.52120 | 106.51947 | 13550 ft | 309 kts | 46° |
| 2026-04-23 16:15 | 10.53604 | 106.53530 | 13247 ft | 308 kts | 46° |
| 2026-04-23 16:15 | 10.55069 | 106.55097 | 12947 ft | 306 kts | 47° |
| 2026-04-23 16:15 | 10.56281 | 106.56863 | 12644 ft | 304 kts | 64° |
| 2026-04-23 16:16 | 10.56924 | 106.58895 | 12355 ft | 303 kts | 81° |
| 2026-04-23 16:16 | 10.56953 | 106.61030 | 12057 ft | 302 kts | 97° |
| 2026-04-23 16:16 | 10.56378 | 106.63078 | 11768 ft | 302 kts | 111° |
| 2026-04-23 16:16 | 10.55577 | 106.65057 | 11462 ft | 302 kts | 111° |
| 2026-04-23 16:17 | 10.54788 | 106.67029 | 11106 ft | 301 kts | 111° |
| 2026-04-23 16:17 | 10.54017 | 106.68969 | 10760 ft | 299 kts | 111° |
| 2026-04-23 16:17 | 10.53230 | 106.70949 | 10403 ft | 298 kts | 111° |
| 2026-04-23 16:17 | 10.52465 | 106.72871 | 10071 ft | 296 kts | 111° |
| 2026-04-23 16:18 | 10.51695 | 106.74805 | 9728 ft | 295 kts | 111° |
| 2026-04-23 16:18 | 10.50929 | 106.76728 | 9350 ft | 293 kts | 111° |
| 2026-04-23 16:18 | 10.50167 | 106.78640 | 8975 ft | 291 kts | 111° |
| 2026-04-23 16:18 | 10.49403 | 106.80558 | 8607 ft | 289 kts | 111° |
| 2026-04-23 16:19 | 10.48661 | 106.82420 | 8237 ft | 286 kts | 111° |
| 2026-04-23 16:19 | 10.48100 | 106.84343 | 7865 ft | 283 kts | 97° |
| 2026-04-23 16:19 | 10.48102 | 106.86323 | 7513 ft | 280 kts | 81° |
| 2026-04-23 16:19 | 10.48548 | 106.88242 | 7164 ft | 278 kts | 76° |
| 2026-04-23 16:20 | 10.49019 | 106.90121 | 6999 ft | 268 kts | 76° |
| 2026-04-23 16:20 | 10.49465 | 106.91912 | 6978 ft | 259 kts | 76° |
| 2026-04-23 16:20 | 10.49902 | 106.93675 | 6908 ft | 257 kts | 76° |
| 2026-04-23 16:20 | 10.50339 | 106.95434 | 6838 ft | 256 kts | 76° |
| 2026-04-23 16:21 | 10.50764 | 106.97143 | 6765 ft | 242 kts | 76° |
| 2026-04-23 16:21 | 10.51310 | 106.98718 | 6699 ft | 233 kts | 69° |
| 2026-04-23 16:21 | 10.51894 | 107.00209 | 6626 ft | 222 kts | 69° |
| 2026-04-23 16:21 | 10.52457 | 107.01651 | 6547 ft | 217 kts | 69° |
| 2026-04-23 16:22 | 10.53011 | 107.03074 | 6478 ft | 216 kts | 69° |
| 2026-04-23 16:22 | 10.53560 | 107.04488 | 6458 ft | 215 kts | 69° |
| 2026-04-23 16:22 | 10.54108 | 107.05898 | 6381 ft | 214 kts | 69° |
| 2026-04-23 16:22 | 10.54656 | 107.07305 | 6309 ft | 214 kts | 69° |
| 2026-04-23 16:23 | 10.55201 | 107.08707 | 6232 ft | 214 kts | 69° |
| 2026-04-23 16:23 | 10.55836 | 107.10071 | 6160 ft | 214 kts | 59° |
| 2026-04-23 16:23 | 10.56734 | 107.11275 | 6091 ft | 215 kts | 48° |
| 2026-04-23 16:23 | 10.57754 | 107.12389 | 6024 ft | 215 kts | 48° |
| 2026-04-23 16:24 | 10.58754 | 107.13490 | 5915 ft | 215 kts | 48° |
| 2026-04-23 16:24 | 10.59766 | 107.14605 | 5789 ft | 214 kts | 48° |
| 2026-04-23 16:24 | 10.60775 | 107.15717 | 5675 ft | 206 kts | 48° |
| 2026-04-23 16:24 | 10.61717 | 107.16753 | 5538 ft | 193 kts | 48° |
| 2026-04-23 16:25 | 10.62602 | 107.17725 | 5419 ft | 181 kts | 49° |
| 2026-04-23 16:25 | 10.63418 | 107.18624 | 5317 ft | 173 kts | 48° |
| 2026-04-23 16:25 | 10.64242 | 107.19528 | 5193 ft | 172 kts | 46° |
| 2026-04-23 16:25 | 10.65149 | 107.20311 | 5079 ft | 172 kts | 37° |
| 2026-04-23 16:26 | 10.66163 | 107.20927 | 4960 ft | 171 kts | 28° |
| 2026-04-23 16:26 | 10.67228 | 107.21496 | 4841 ft | 171 kts | 29° |
| 2026-04-23 16:26 | 10.68263 | 107.22051 | 4725 ft | 171 kts | 28° |
| 2026-04-23 16:26 | 10.68972 | 107.22432 | 4643 ft | 171 kts | 28° |
| 2026-04-23 16:27 | 10.70363 | 107.23178 | 4471 ft | 170 kts | 29° |
| 2026-04-23 16:27 | 10.71070 | 107.23558 | 4401 ft | 170 kts | 30° |
| 2026-04-23 16:27 | 10.72117 | 107.24120 | 4276 ft | 170 kts | 30° |
| 2026-04-23 16:27 | 10.73166 | 107.24683 | 4156 ft | 170 kts | 29° |
| 2026-04-23 16:28 | 10.74208 | 107.25240 | 4082 ft | 170 kts | 28° |
| 2026-04-23 16:28 | 10.75302 | 107.25699 | 4014 ft | 170 kts | 19° |
| 2026-04-23 16:28 | 10.76461 | 107.25973 | 4015 ft | 171 kts | 10° |
| 2026-04-23 16:28 | 10.77639 | 107.26176 | 4017 ft | 172 kts | 11° |
| 2026-04-23 16:29 | 10.78816 | 107.26381 | 4016 ft | 172 kts | 11° |
| 2026-04-23 16:29 | 10.79994 | 107.26587 | 4016 ft | 171 kts | 11° |
| 2026-04-23 16:29 | 10.81153 | 107.26788 | 4016 ft | 171 kts | 10° |
| 2026-04-23 16:29 | 10.82352 | 107.26927 | 4016 ft | 172 kts | 359° |
| 2026-04-23 16:30 | 10.83523 | 107.26747 | 4013 ft | 173 kts | 343° |
| 2026-04-23 16:30 | 10.84631 | 107.26236 | 4016 ft | 174 kts | 326° |
| 2026-04-23 16:30 | 10.85536 | 107.25457 | 4016 ft | 172 kts | 310° |
| 2026-04-23 16:30 | 10.86204 | 107.24453 | 4016 ft | 171 kts | 294° |
| 2026-04-23 16:31 | 10.86575 | 107.23315 | 4016 ft | 170 kts | 278° |
| 2026-04-23 16:31 | 10.86653 | 107.22108 | 4016 ft | 169 kts | 268° |
| 2026-04-23 16:31 | 10.86666 | 107.20928 | 4016 ft | 169 kts | 268° |
| 2026-04-23 16:31 | 10.86682 | 107.19730 | 3989 ft | 169 kts | 268° |
| 2026-04-23 16:32 | 10.86698 | 107.18544 | 3909 ft | 166 kts | 268° |
| 2026-04-23 16:32 | 10.86713 | 107.17380 | 3835 ft | 164 kts | 269° |
| 2026-04-23 16:32 | 10.86728 | 107.16227 | 3761 ft | 163 kts | 268° |
| 2026-04-23 16:32 | 10.86741 | 107.15082 | 3689 ft | 157 kts | 269° |
| 2026-04-23 16:33 | 10.86755 | 107.13952 | 3622 ft | 163 kts | 268° |
| 2026-04-23 16:33 | 10.86769 | 107.12797 | 3552 ft | 163 kts | 268° |
| 2026-04-23 16:33 | 10.86783 | 107.11641 | 3469 ft | 164 kts | 268° |
| 2026-04-23 16:33 | 10.86797 | 107.10462 | 3354 ft | 168 kts | 268° |
| 2026-04-23 16:34 | 10.86812 | 107.09275 | 3274 ft | 168 kts | 268° |
| 2026-04-23 16:34 | 10.86826 | 107.08059 | 3229 ft | 174 kts | 268° |
| 2026-04-23 16:34 | 10.86842 | 107.06833 | 3181 ft | 174 kts | 268° |
| 2026-04-23 16:34 | 10.86856 | 107.05598 | 3133 ft | 175 kts | 268° |
| 2026-04-23 16:35 | 10.86870 | 107.04366 | 3082 ft | 174 kts | 268° |
| 2026-04-23 16:35 | 10.86885 | 107.03142 | 3002 ft | 172 kts | 268° |
| 2026-04-23 16:35 | 10.86898 | 107.01923 | 3005 ft | 172 kts | 268° |
| 2026-04-23 16:35 | 10.86913 | 107.00703 | 3007 ft | 172 kts | 268° |
| 2026-04-23 16:36 | 10.86928 | 106.99481 | 3007 ft | 173 kts | 268° |
| 2026-04-23 16:36 | 10.86941 | 106.98270 | 3006 ft | 173 kts | 268° |
| 2026-04-23 16:36 | 10.86956 | 106.97028 | 3008 ft | 173 kts | 268° |
| 2026-04-23 16:36 | 10.86971 | 106.95820 | 3008 ft | 173 kts | 268° |
| 2026-04-23 16:37 | 10.86986 | 106.94602 | 3009 ft | 172 kts | 268° |
| 2026-04-23 16:37 | 10.87001 | 106.93382 | 3006 ft | 172 kts | 268° |
| 2026-04-23 16:37 | 10.87015 | 106.92167 | 3007 ft | 173 kts | 268° |
| 2026-04-23 16:37 | 10.87027 | 106.90940 | 3008 ft | 172 kts | 268° |
| 2026-04-23 16:38 | 10.87150 | 106.89727 | 3005 ft | 174 kts | 277° |
| 2026-04-23 16:38 | 10.87349 | 106.88514 | 3005 ft | 174 kts | 277° |
| 2026-04-23 16:38 | 10.87545 | 106.87304 | 3007 ft | 174 kts | 277° |
| 2026-04-23 16:38 | 10.87741 | 106.86093 | 3007 ft | 173 kts | 277° |
| 2026-04-23 16:39 | 10.87937 | 106.84880 | 3007 ft | 173 kts | 277° |
| 2026-04-23 16:39 | 10.88132 | 106.83674 | 3006 ft | 173 kts | 277° |
| 2026-04-23 16:39 | 10.88276 | 106.82457 | 3005 ft | 173 kts | 267° |
| 2026-04-23 16:39 | 10.88056 | 106.81269 | 2932 ft | 171 kts | 250° |
| 2026-04-23 16:40 | 10.87671 | 106.80129 | 2755 ft | 170 kts | 247° |
| 2026-04-23 16:40 | 10.87260 | 106.79000 | 2551 ft | 171 kts | 246° |
| 2026-04-23 16:40 | 10.86839 | 106.77871 | 2340 ft | 171 kts | 246° |
| 2026-04-23 16:40 | 10.86416 | 106.76743 | 2122 ft | 171 kts | 245° |
| 2026-04-23 16:41 | 10.85993 | 106.75619 | 1912 ft | 170 kts | 245° |
| 2026-04-23 16:41 | 10.85572 | 106.74500 | 1691 ft | 169 kts | 244° |
| 2026-04-23 16:41 | 10.85154 | 106.73394 | 1474 ft | 169 kts | 245° |
| 2026-04-23 16:41 | 10.84743 | 106.72301 | 1257 ft | 162 kts | 245° |
| 2026-04-23 16:42 | 10.84344 | 106.71244 | 1046 ft | 158 kts | 245° |
| 2026-04-23 16:42 | 10.83955 | 106.70212 | 854 ft | 153 kts | 246° |
| 2026-04-23 16:42 | 10.83583 | 106.69226 | 671 ft | 148 kts | 245° |
| 2026-04-23 16:42 | 10.83221 | 106.68232 | 454 ft | 149 kts | 247° |
| 2026-04-23 16:43 | 10.82833 | 106.67269 | 249 ft | 145 kts | 245° |
| 2026-04-23 16:43 | 10.82485 | 106.66329 | 95 ft | 144 kts | 245° |
| 2026-04-23 16:43 | 10.82135 | 106.65404 | 35 ft | 117 kts | 250° |
| 2026-04-23 16:43 | 10.81951 | 106.64910 | 36 ft | 41 kts | 249° |
| 2026-04-23 16:44 | 10.81841 | 106.64689 | 36 ft | 33 kts | 232° |
| 2026-04-23 16:44 | 10.81717 | 106.64572 | 39 ft | 22 kts | 219° |
| 2026-04-23 16:44 | 10.81625 | 106.64487 | 38 ft | 18 kts | 237° |
| 2026-04-23 16:44 | 10.81575 | 106.64377 | 36 ft | 16 kts | 250° |
| 2026-04-23 16:45 | 10.81503 | 106.64307 | 35 ft | 16 kts | 169° |
| 2026-04-23 16:45 | 10.81401 | 106.64347 | 38 ft | 16 kts | 160° |
| 2026-04-23 16:45 | 10.81323 | 106.64376 | 37 ft | 0 kts | 160° |
| 2026-04-23 16:45 | 10.81321 | 106.64377 | 37 ft | 0 kts | 160° |
| 2026-04-23 16:46 | 10.81317 | 106.64378 | 37 ft | 1 kts | 160° |
| 2026-04-23 16:46 | 10.81313 | 106.64380 | 37 ft | 1 kts | 160° |
| 2026-04-23 16:46 | 10.81306 | 106.64382 | 36 ft | 1 kts | 160° |
| 2026-04-23 16:46 | 10.81301 | 106.64384 | 36 ft | 0 kts | 160° |
| 2026-04-23 16:47 | 10.81298 | 106.64385 | 36 ft | 1 kts | 160° |
| 2026-04-23 16:47 | 10.81293 | 106.64387 | 36 ft | 2 kts | 160° |
| 2026-04-23 16:47 | 10.81281 | 106.64392 | 36 ft | 4 kts | 160° |
| 2026-04-23 16:47 | 10.81239 | 106.64421 | 36 ft | 8 kts | 124° |
| 2026-04-23 16:48 | 10.81228 | 106.64466 | 37 ft | 5 kts | 100° |
| 2026-04-23 16:48 | 10.81224 | 106.64488 | 38 ft | 1 kts | 100° |
| 2026-04-23 16:48 | 10.81215 | 106.64537 | 40 ft | 13 kts | 99° |
| 2026-04-23 16:48 | 10.81204 | 106.64632 | 39 ft | 14 kts | 85° |
| 2026-04-23 16:49 | 10.81227 | 106.64697 | 38 ft | 14 kts | 69° |
| 2026-04-23 16:49 | 10.81271 | 106.64815 | 38 ft | 12 kts | 68° |
| 2026-04-23 16:49 | 10.81300 | 106.64890 | 38 ft | 10 kts | 69° |
| 2026-04-23 16:49 | 10.81322 | 106.64949 | 37 ft | 0 kts | 69° |
| 2026-04-23 16:50 | 10.81322 | 106.64950 | 37 ft | 0 kts | 69° |
| 2026-04-23 16:51 | 10.81314 | 106.64965 | 38 ft | 4 kts | 138° |